createdAt,value
2022-08-19T00:01:38.069Z,22.37
2022-08-19T00:04:08.905Z,29.20
2022-08-19T00:06:36.927Z,23.30
2022-08-19T00:09:05.912Z,24.53
2022-08-19T00:11:32.796Z,24.37
2022-08-19T00:13:59.797Z,30.10
2022-08-19T00:16:27.312Z,27.23
2022-08-19T00:18:57.000Z,26.37
2022-08-19T00:21:31.018Z,23.40
2022-08-19T00:24:01.079Z,29.00
2022-08-19T00:26:28.737Z,27.03
2022-08-19T00:28:56.267Z,28.57
2022-08-19T00:31:23.193Z,25.30
2022-08-19T00:33:52.612Z,33.07
2022-08-19T00:36:18.993Z,30.03
2022-08-19T00:38:45.739Z,30.13
2022-08-19T00:41:22.083Z,31.70
2022-08-19T00:44:20.157Z,30.40
2022-08-19T00:46:51.617Z,29.70
2022-08-19T00:49:42.301Z,28.93
2022-08-19T00:52:14.235Z,34.53
2022-08-19T00:54:41.695Z,30.67
2022-08-19T00:57:16.000Z,33.43
2022-08-19T01:00:01.879Z,82.00
2022-08-19T01:02:30.977Z,78.07
2022-08-19T01:04:57.606Z,34.97
2022-08-19T01:07:24.217Z,36.77
2022-08-19T01:09:50.881Z,36.53
2022-08-19T01:12:18.425Z,41.23
2022-08-19T01:14:46.100Z,33.60
2022-08-19T01:17:14.025Z,34.40
2022-08-19T01:19:44.757Z,32.93
2022-08-19T01:22:31.434Z,40.17
2022-08-19T01:25:00.221Z,38.37
2022-08-19T01:27:26.809Z,32.83
2022-08-19T01:29:56.483Z,33.93
2022-08-19T01:32:33.544Z,33.17
2022-08-19T01:35:03.243Z,37.67
2022-08-19T01:37:31.160Z,35.60
2022-08-19T01:39:57.613Z,37.07
2022-08-19T01:42:30.234Z,38.03
2022-08-19T01:44:57.185Z,36.37
2022-08-19T01:47:23.540Z,36.63
2022-08-19T01:49:49.913Z,38.83
2022-08-19T01:52:16.259Z,43.37
2022-08-19T01:54:42.646Z,38.83
2022-08-19T01:57:13.320Z,38.97
2022-08-19T01:59:41.111Z,36.50
2022-08-19T02:02:09.325Z,39.30
2022-08-19T02:04:38.538Z,40.17
2022-08-19T02:07:05.585Z,37.23
2022-08-19T02:09:33.065Z,34.37
2022-08-19T02:11:59.435Z,43.23
2022-08-19T02:14:25.789Z,38.90
2022-08-19T02:16:52.149Z,36.70
2022-08-19T02:19:18.556Z,42.87
2022-08-19T02:21:45.005Z,46.07
2022-08-19T02:24:11.401Z,40.37
2022-08-19T02:26:37.780Z,40.60
2022-08-19T02:29:05.133Z,44.57
2022-08-19T02:31:31.785Z,42.20
2022-08-19T02:33:58.208Z,38.30
2022-08-19T02:36:26.421Z,37.00
2022-08-19T02:38:55.001Z,39.83
2022-08-19T02:41:28.245Z,40.00
2022-08-19T02:44:29.236Z,44.27
2022-08-19T02:46:48.888Z,37.97
2022-08-19T02:49:17.847Z,42.10
2022-08-19T02:51:46.484Z,40.77
2022-08-19T02:54:13.838Z,38.47
2022-08-19T02:56:42.379Z,38.17
2022-08-19T02:59:11.718Z,34.40
2022-08-19T03:01:41.288Z,36.67
2022-08-19T03:04:09.256Z,38.20
2022-08-19T03:06:43.784Z,39.83
2022-08-19T03:09:10.669Z,40.07
2022-08-19T03:11:37.783Z,35.87
2022-08-19T03:14:05.843Z,40.03
2022-08-19T03:16:35.047Z,38.67
2022-08-19T03:19:02.936Z,41.37
2022-08-19T03:21:33.093Z,35.67
2022-08-19T03:24:05.002Z,37.40
2022-08-19T03:26:31.719Z,35.60
2022-08-19T03:28:59.040Z,36.47
2022-08-19T03:31:43.517Z,40.47
2022-08-19T03:34:18.817Z,35.17
2022-08-19T03:36:46.511Z,35.60
2022-08-19T03:39:12.899Z,41.00
2022-08-19T03:41:44.448Z,40.27
2022-08-19T03:44:12.669Z,37.27
2022-08-19T03:46:44.736Z,41.57
2022-08-19T03:49:11.287Z,37.40
2022-08-19T03:51:42.426Z,39.00
2022-08-19T03:54:11.902Z,38.53
2022-08-19T03:56:40.351Z,38.77
2022-08-19T03:59:09.685Z,41.93
2022-08-19T04:01:36.635Z,41.03
2022-08-19T04:04:04.647Z,33.83
2022-08-19T04:06:35.604Z,38.60
2022-08-19T04:09:09.535Z,38.87
2022-08-19T04:11:43.619Z,36.27
2022-08-19T04:14:16.953Z,37.47
2022-08-19T04:16:45.537Z,36.13
2022-08-19T04:19:12.118Z,34.43
2022-08-19T04:21:38.809Z,35.70
2022-08-19T04:24:08.136Z,36.77
2022-08-19T04:26:36.836Z,38.60
2022-08-19T04:29:14.020Z,34.93
2022-08-19T04:31:41.735Z,33.77
2022-08-19T04:34:14.132Z,35.80
2022-08-19T04:36:42.477Z,35.40
2022-08-19T04:39:12.174Z,35.50
2022-08-19T04:41:57.231Z,36.87
2022-08-19T04:44:24.335Z,47.57
2022-08-19T04:46:52.273Z,36.43
2022-08-19T04:49:20.998Z,36.83
2022-08-19T04:51:50.743Z,34.73
2022-08-19T04:54:30.934Z,31.73
2022-08-19T04:57:07.692Z,33.40
2022-08-19T04:59:34.813Z,37.70
2022-08-19T05:02:01.232Z,36.53
2022-08-19T05:04:29.604Z,36.63
2022-08-19T05:06:59.404Z,36.37
2022-08-19T05:09:28.460Z,35.53
2022-08-19T05:12:14.777Z,38.27
2022-08-19T05:14:41.100Z,38.10
2022-08-19T05:17:26.594Z,36.57
2022-08-19T05:20:13.004Z,37.93
2022-08-19T05:22:40.088Z,40.50
2022-08-19T05:25:12.959Z,38.60
2022-08-19T05:27:40.770Z,38.43
2022-08-19T05:30:07.850Z,34.00
2022-08-19T05:32:34.200Z,39.50
2022-08-19T05:35:00.673Z,34.70
2022-08-19T05:37:28.338Z,37.73
2022-08-19T05:39:55.650Z,37.10
2022-08-19T05:42:23.607Z,35.23
2022-08-19T05:44:50.972Z,33.00
2022-08-19T05:47:20.450Z,34.53
2022-08-19T05:49:47.166Z,33.93
2022-08-19T05:52:18.662Z,34.30
2022-08-19T05:54:48.571Z,42.43
2022-08-19T05:57:18.638Z,31.17
2022-08-19T05:59:47.080Z,39.73
2022-08-19T06:02:14.334Z,32.00
2022-08-19T06:04:43.555Z,32.13
2022-08-19T06:07:12.562Z,33.90
2022-08-19T06:09:39.882Z,38.23
2022-08-19T06:12:07.305Z,35.83
2022-08-19T06:14:40.298Z,33.60
2022-08-19T06:17:09.019Z,32.67
2022-08-19T06:19:40.671Z,33.00
2022-08-19T06:22:08.160Z,33.63
2022-08-19T06:24:34.644Z,34.20
2022-08-19T06:27:02.335Z,30.03
2022-08-19T06:29:30.737Z,33.90
2022-08-19T06:31:59.239Z,28.83
2022-08-19T06:34:28.230Z,28.57
2022-08-19T06:36:56.085Z,31.47
2022-08-19T06:39:25.531Z,27.73
2022-08-19T06:41:58.151Z,26.33
2022-08-19T06:44:30.590Z,31.77
2022-08-19T06:46:58.387Z,30.67
2022-08-19T06:49:25.969Z,30.00
2022-08-19T06:51:52.329Z,26.60
2022-08-19T06:54:20.474Z,27.10
2022-08-19T06:56:47.676Z,29.03
2022-08-19T06:59:20.613Z,29.70
2022-08-19T07:01:52.259Z,29.97
2022-08-19T07:04:24.161Z,29.17
2022-08-19T07:06:57.572Z,37.70
2022-08-19T07:09:27.487Z,33.07
2022-08-19T07:11:57.032Z,33.53
2022-08-19T07:14:27.579Z,27.03
2022-08-19T07:16:56.378Z,30.87
2022-08-19T07:19:27.195Z,28.60
2022-08-19T07:21:54.624Z,31.63
2022-08-19T07:24:24.686Z,30.13
2022-08-19T07:26:52.943Z,32.13
2022-08-19T07:29:23.729Z,26.40
2022-08-19T07:31:53.586Z,34.03
2022-08-19T07:34:20.687Z,28.07
2022-08-19T07:36:47.153Z,27.30
2022-08-19T07:39:18.143Z,26.90
2022-08-19T07:41:46.317Z,26.20
2022-08-19T07:44:13.633Z,25.30
2022-08-19T07:46:46.457Z,24.13
2022-08-19T07:49:19.907Z,22.43
2022-08-19T07:51:49.875Z,26.63
2022-08-19T07:54:16.743Z,24.87
2022-08-19T07:56:43.149Z,26.23
2022-08-19T07:59:10.337Z,25.93
2022-08-19T08:01:37.767Z,27.90
2022-08-19T08:04:27.309Z,27.00
2022-08-19T08:07:13.168Z,26.50
2022-08-19T08:09:43.166Z,26.00
2022-08-19T08:12:33.607Z,27.27
2022-08-19T08:15:05.318Z,27.30
2022-08-19T08:17:49.327Z,23.43
2022-08-19T08:20:18.704Z,23.03
2022-08-19T08:23:05.158Z,27.17
2022-08-19T08:25:32.391Z,24.60
2022-08-19T08:28:01.099Z,25.20
2022-08-19T08:30:31.003Z,30.20
2022-08-19T08:32:57.710Z,31.43
2022-08-19T08:35:25.517Z,27.67
2022-08-19T08:37:54.519Z,28.87
2022-08-19T08:40:39.412Z,37.43
2022-08-19T08:43:10.812Z,33.57
2022-08-19T08:45:47.621Z,32.77
2022-08-19T08:48:42.160Z,32.27
2022-08-19T08:51:15.284Z,36.87
2022-08-19T08:53:50.247Z,32.67
2022-08-19T08:56:23.420Z,39.33
2022-08-19T08:59:22.856Z,39.23
2022-08-19T09:01:49.472Z,36.50
2022-08-19T09:04:16.699Z,36.60
2022-08-19T09:06:52.716Z,37.60
2022-08-19T09:09:33.217Z,32.67
2022-08-19T09:12:14.703Z,37.70
2022-08-19T09:14:51.491Z,34.33
2022-08-19T09:17:21.904Z,43.97
2022-08-19T09:19:54.694Z,43.30
2022-08-19T09:22:26.038Z,43.67
2022-08-19T09:24:54.717Z,46.33
2022-08-19T09:27:22.090Z,45.97
2022-08-19T09:30:11.405Z,47.83
2022-08-19T09:32:40.165Z,49.33
2022-08-19T09:35:08.736Z,42.17
2022-08-19T09:37:35.964Z,51.43
2022-08-19T09:40:02.777Z,45.60
2022-08-19T09:42:30.517Z,46.63
2022-08-19T09:45:02.203Z,47.47
2022-08-19T09:47:31.791Z,46.53
2022-08-19T09:49:59.110Z,52.17
2022-08-19T09:52:25.737Z,45.47
2022-08-19T09:54:59.840Z,49.03
2022-08-19T09:57:26.315Z,46.00
2022-08-19T09:59:52.663Z,50.10
2022-08-19T10:02:22.098Z,55.13
2022-08-19T10:05:07.684Z,45.87
2022-08-19T10:07:36.519Z,52.50
2022-08-19T10:10:07.087Z,51.10
2022-08-19T10:12:35.239Z,52.77
2022-08-19T10:15:02.356Z,53.43
2022-08-19T10:17:31.686Z,53.77
2022-08-19T10:20:00.647Z,53.87
2022-08-19T10:22:27.308Z,57.77
2022-08-19T10:24:54.184Z,69.50
2022-08-19T10:27:20.797Z,55.20
2022-08-19T10:29:48.386Z,55.67
2022-08-19T10:32:14.741Z,53.20
2022-08-19T10:34:48.718Z,51.90
2022-08-19T10:37:23.625Z,50.60
2022-08-19T10:39:55.977Z,51.27
2022-08-19T10:42:22.420Z,57.17
2022-08-19T10:44:48.974Z,53.93
2022-08-19T10:47:24.950Z,50.20
2022-08-19T10:50:12.957Z,52.93
2022-08-19T10:52:49.257Z,49.07
2022-08-19T10:55:40.624Z,49.70
2022-08-19T10:58:15.450Z,48.33
2022-08-19T11:00:44.061Z,50.47
2022-08-19T11:03:11.209Z,54.50
2022-08-19T11:05:40.409Z,57.43
2022-08-19T11:08:22.121Z,47.30
2022-08-19T11:10:51.151Z,57.73
2022-08-19T11:13:17.525Z,66.43
2022-08-19T11:15:43.980Z,53.07
2022-08-19T11:18:13.215Z,55.70
2022-08-19T11:20:39.991Z,60.10
2022-08-19T11:23:06.470Z,59.60
2022-08-19T11:25:32.857Z,53.63
2022-08-19T11:27:59.217Z,59.20
2022-08-19T11:30:25.604Z,60.63
2022-08-19T11:32:52.039Z,62.23
2022-08-19T11:35:20.895Z,59.37
2022-08-19T11:37:47.309Z,59.93
2022-08-19T11:40:13.731Z,65.50
2022-08-19T11:42:58.171Z,64.90
2022-08-19T11:45:26.876Z,64.40
2022-08-19T11:47:53.825Z,61.57
2022-08-19T11:50:20.926Z,61.53
2022-08-19T11:52:47.895Z,64.33
2022-08-19T11:55:15.132Z,58.10
2022-08-19T11:57:42.137Z,61.53
2022-08-19T12:00:09.687Z,65.80
2022-08-19T12:02:36.114Z,59.60
2022-08-19T12:05:09.017Z,62.57
2022-08-19T12:07:38.271Z,61.20
2022-08-19T12:10:04.974Z,65.07
2022-08-19T12:12:31.564Z,68.63
2022-08-19T12:14:59.236Z,64.93
2022-08-19T12:17:27.598Z,63.30
2022-08-19T12:19:55.041Z,65.50
2022-08-19T12:22:22.195Z,70.27
2022-08-19T12:24:51.112Z,68.53
2022-08-19T12:27:31.093Z,69.00
2022-08-19T12:30:06.096Z,70.67
2022-08-19T12:32:33.705Z,73.63
2022-08-19T12:35:00.147Z,65.83
2022-08-19T12:37:26.517Z,70.20
2022-08-19T12:39:53.480Z,70.60
2022-08-19T12:42:20.350Z,69.50
2022-08-19T12:44:46.903Z,69.63
2022-08-19T12:47:14.782Z,66.43
2022-08-19T12:49:51.907Z,64.50
2022-08-19T12:52:23.328Z,66.77
2022-08-19T12:54:54.299Z,69.73
2022-08-19T12:57:23.766Z,67.33
2022-08-19T12:59:54.717Z,67.67
2022-08-19T13:02:21.292Z,66.30
2022-08-19T13:04:47.730Z,71.77
2022-08-19T13:07:14.093Z,71.20
2022-08-19T13:09:43.359Z,71.10
2022-08-19T13:12:13.811Z,67.40
2022-08-19T13:14:41.220Z,70.83
2022-08-19T13:17:07.819Z,66.67
2022-08-19T13:19:37.381Z,66.50
2022-08-19T13:22:03.748Z,65.67
2022-08-19T13:24:33.694Z,68.50
2022-08-19T13:27:01.470Z,69.93
2022-08-19T13:29:46.226Z,63.83
2022-08-19T13:32:30.977Z,65.27
2022-08-19T13:34:57.328Z,63.97
2022-08-19T13:37:41.982Z,68.73
2022-08-19T13:40:16.469Z,67.13
2022-08-19T13:42:44.797Z,66.20
2022-08-19T13:45:12.478Z,64.60
2022-08-19T13:47:45.227Z,67.13
2022-08-19T13:50:14.277Z,71.00
2022-08-19T13:52:41.130Z,71.77
2022-08-19T13:55:09.970Z,70.80
2022-08-19T13:57:37.257Z,73.27
2022-08-19T14:00:06.726Z,72.40
2022-08-19T14:02:33.068Z,70.80
2022-08-19T14:04:59.605Z,73.70
2022-08-19T14:07:26.092Z,70.73
2022-08-19T14:09:52.623Z,67.60
2022-08-19T14:12:28.831Z,65.00
2022-08-19T14:14:55.821Z,71.53
2022-08-19T14:17:22.430Z,68.90
2022-08-19T14:19:49.170Z,68.70
2022-08-19T14:22:15.542Z,76.03
2022-08-19T14:24:49.033Z,62.83
2022-08-19T14:27:15.714Z,64.17
2022-08-19T14:29:42.253Z,60.20
2022-08-19T14:32:08.876Z,68.60
2022-08-19T14:34:39.364Z,66.70
2022-08-19T14:37:06.926Z,63.50
2022-08-19T14:39:33.322Z,63.57
2022-08-19T14:41:59.951Z,65.23
2022-08-19T14:44:27.200Z,72.83
2022-08-19T14:46:54.172Z,72.07
2022-08-19T14:49:20.965Z,65.57
2022-08-19T14:51:58.340Z,61.23
2022-08-19T14:54:25.262Z,57.63
2022-08-19T14:56:53.642Z,57.13
2022-08-19T14:59:20.717Z,65.53
2022-08-19T15:01:47.145Z,68.17
2022-08-19T15:04:14.115Z,66.30
2022-08-19T15:06:40.591Z,64.97
2022-08-19T15:09:07.007Z,57.20
2022-08-19T15:11:33.668Z,67.33
2022-08-19T15:14:00.932Z,67.67
2022-08-19T15:16:28.677Z,69.33
2022-08-19T15:18:57.848Z,64.90
2022-08-19T15:21:27.559Z,60.30
2022-08-19T15:23:55.199Z,56.73
2022-08-19T15:26:22.034Z,56.33
2022-08-19T15:28:49.489Z,55.87
2022-08-19T15:31:25.631Z,56.30
2022-08-19T15:33:58.816Z,59.27
2022-08-19T15:36:26.903Z,54.70
2022-08-19T15:38:53.424Z,60.30
2022-08-19T15:41:23.573Z,57.03
2022-08-19T15:44:12.111Z,61.10
2022-08-19T15:46:40.681Z,56.80
2022-08-19T15:49:07.306Z,53.03
2022-08-19T15:51:35.696Z,51.83
2022-08-19T15:54:13.801Z,46.73
2022-08-19T15:56:59.171Z,37.57
2022-08-19T15:59:47.422Z,32.17
2022-08-19T16:02:34.257Z,26.17
2022-08-19T16:05:20.082Z,29.13
2022-08-19T16:07:47.343Z,30.70
2022-08-19T16:10:27.188Z,32.40
2022-08-19T16:12:56.654Z,35.40
2022-08-19T16:15:23.797Z,30.13
2022-08-19T16:17:57.128Z,31.20
2022-08-19T16:20:26.332Z,34.40
2022-08-19T16:22:53.539Z,32.13
2022-08-19T16:25:19.961Z,28.60
2022-08-19T16:28:06.149Z,32.93
2022-08-19T16:30:32.646Z,31.47
2022-08-19T16:32:59.066Z,28.80
2022-08-19T16:35:25.421Z,34.27
2022-08-19T16:37:51.765Z,34.10
2022-08-19T16:40:18.186Z,32.13
2022-08-19T16:42:45.105Z,28.50
2022-08-19T16:45:11.503Z,35.13
2022-08-19T16:47:37.893Z,31.13
2022-08-19T16:50:07.352Z,37.23
2022-08-19T16:52:34.983Z,32.83
2022-08-19T16:55:01.396Z,34.83
2022-08-19T16:57:27.885Z,31.10
2022-08-19T16:59:54.288Z,35.60
2022-08-19T17:02:23.128Z,31.70
2022-08-19T17:04:57.196Z,33.47
2022-08-19T17:07:25.059Z,34.13
2022-08-19T17:09:51.398Z,34.17
2022-08-19T17:12:17.736Z,38.23
2022-08-19T17:14:45.934Z,32.13
2022-08-19T17:17:12.920Z,38.30
2022-08-19T17:19:41.715Z,40.57
2022-08-19T17:22:09.797Z,34.03
2022-08-19T17:24:38.084Z,33.77
2022-08-19T17:27:07.805Z,31.63
2022-08-19T17:29:34.745Z,31.50
2022-08-19T17:32:01.844Z,33.13
2022-08-19T17:34:28.255Z,34.00
2022-08-19T17:36:56.996Z,34.20
2022-08-19T17:39:25.234Z,41.73
2022-08-19T17:41:51.804Z,32.10
2022-08-19T17:44:18.809Z,33.10
2022-08-19T17:46:46.534Z,34.50
2022-08-19T17:49:13.231Z,34.40
2022-08-19T17:51:44.764Z,32.80
2022-08-19T17:54:18.528Z,36.00
2022-08-19T17:56:46.212Z,36.93
2022-08-19T17:59:14.522Z,37.00
2022-08-19T18:01:54.072Z,35.67
2022-08-19T18:04:22.840Z,36.67
2022-08-19T18:06:53.095Z,34.60
2022-08-19T18:09:23.785Z,37.93
2022-08-19T18:11:52.978Z,42.63
2022-08-19T18:14:20.706Z,37.70
2022-08-19T18:16:47.112Z,37.07
2022-08-19T18:19:13.613Z,36.43
2022-08-19T18:21:40.693Z,35.10
2022-08-19T18:24:07.163Z,33.53
2022-08-19T18:26:33.677Z,39.50
2022-08-19T18:29:00.113Z,38.63
2022-08-19T18:31:26.526Z,52.70
2022-08-19T18:33:52.972Z,47.70
2022-08-19T18:36:37.397Z,42.97
2022-08-19T18:39:25.256Z,38.03
2022-08-19T18:42:14.165Z,36.77
2022-08-19T18:45:00.041Z,39.43
2022-08-19T18:47:45.001Z,41.30
2022-08-19T18:50:13.009Z,43.83
2022-08-19T18:52:40.642Z,39.53
2022-08-19T18:55:07.545Z,38.53
2022-08-19T18:57:34.079Z,38.60
2022-08-19T19:00:00.453Z,38.30
2022-08-19T19:02:27.635Z,37.60
2022-08-19T19:04:55.879Z,40.10
2022-08-19T19:07:22.250Z,41.07
2022-08-19T19:09:51.251Z,37.07
2022-08-19T19:12:18.262Z,39.30
2022-08-19T19:14:49.510Z,41.10
2022-08-19T19:17:17.376Z,43.07
2022-08-19T19:19:44.156Z,40.70
2022-08-19T19:22:18.580Z,37.43
2022-08-19T19:24:45.099Z,38.60
2022-08-19T19:27:13.517Z,39.87
2022-08-19T19:29:41.381Z,37.73
2022-08-19T19:32:16.550Z,43.77
2022-08-19T19:34:42.952Z,40.13
2022-08-19T19:37:09.314Z,34.10
2022-08-19T19:39:46.282Z,42.10
2022-08-19T19:42:19.853Z,36.30
2022-08-19T19:44:50.066Z,37.83
2022-08-19T19:47:18.515Z,38.60
2022-08-19T19:50:10.585Z,40.67
2022-08-19T19:52:32.566Z,38.10
2022-08-19T19:54:58.912Z,47.07
2022-08-19T19:57:26.583Z,47.10
2022-08-19T19:59:54.086Z,42.00
2022-08-19T20:02:21.823Z,38.57
2022-08-19T20:04:48.794Z,38.70
2022-08-19T20:07:15.263Z,38.20
2022-08-19T20:09:58.740Z,45.00
2022-08-19T20:12:25.501Z,41.77
2022-08-19T20:14:52.076Z,35.17
2022-08-19T20:17:20.789Z,41.83
2022-08-19T20:19:47.955Z,39.63
2022-08-19T20:22:14.659Z,41.73
2022-08-19T20:24:42.427Z,37.70
2022-08-19T20:27:09.180Z,35.17
2022-08-19T20:29:41.342Z,35.87
2022-08-19T20:32:10.118Z,29.40
2022-08-19T20:34:37.103Z,33.40
2022-08-19T20:37:03.714Z,33.50
2022-08-19T20:39:31.328Z,29.07
2022-08-19T20:41:57.771Z,31.60
2022-08-19T20:44:25.283Z,33.77
2022-08-19T20:46:55.622Z,29.83
2022-08-19T20:49:27.551Z,31.07
2022-08-19T20:51:55.963Z,31.93
2022-08-19T20:54:22.392Z,31.57
2022-08-19T20:56:48.939Z,29.80
2022-08-19T20:59:15.532Z,29.47
2022-08-19T21:01:41.986Z,30.53
2022-08-19T21:04:08.342Z,36.33
2022-08-19T21:06:34.689Z,33.13
2022-08-19T21:09:01.056Z,32.67
2022-08-19T21:11:27.456Z,34.33
2022-08-19T21:13:53.835Z,40.77
2022-08-19T21:16:20.433Z,34.60
2022-08-19T21:18:46.814Z,32.10
2022-08-19T21:21:13.299Z,35.57
2022-08-19T21:23:39.855Z,33.20
2022-08-19T21:26:06.277Z,37.87
2022-08-19T21:28:35.908Z,35.30
2022-08-19T21:31:05.214Z,32.43
2022-08-19T21:33:32.234Z,28.77
2022-08-19T21:35:59.915Z,31.23
2022-08-19T21:38:26.392Z,31.87
2022-08-19T21:40:52.926Z,30.40
2022-08-19T21:43:19.494Z,28.57
2022-08-19T21:45:47.427Z,26.50
2022-08-19T21:48:14.907Z,34.50
2022-08-19T21:50:42.470Z,31.93
2022-08-19T21:53:09.054Z,38.27
2022-08-19T21:55:39.057Z,37.63
2022-08-19T21:58:05.409Z,31.30
2022-08-19T22:00:34.320Z,36.23
2022-08-19T22:03:01.306Z,32.80
2022-08-19T22:05:28.313Z,41.33
2022-08-19T22:07:59.556Z,33.47
2022-08-19T22:10:32.895Z,32.47
2022-08-19T22:12:59.540Z,31.50
2022-08-19T22:15:29.463Z,34.70
2022-08-19T22:17:58.335Z,30.30
2022-08-19T22:20:27.824Z,30.90
2022-08-19T22:22:57.467Z,29.67
2022-08-19T22:25:31.298Z,36.63
2022-08-19T22:28:00.388Z,35.20
2022-08-19T22:30:27.399Z,33.33
2022-08-19T22:33:05.655Z,34.17
2022-08-19T22:35:35.896Z,32.17
2022-08-19T22:38:03.613Z,31.63
2022-08-19T22:40:30.917Z,33.83
2022-08-19T22:43:00.210Z,31.40
2022-08-19T22:45:27.295Z,30.70
2022-08-19T22:47:54.308Z,34.10
2022-08-19T22:50:20.899Z,30.73
2022-08-19T22:52:51.825Z,30.83
2022-08-19T22:55:19.249Z,28.83
2022-08-19T22:57:45.629Z,31.73
2022-08-19T23:00:13.566Z,31.77
2022-08-19T23:02:51.777Z,41.83
2022-08-19T23:05:21.798Z,34.90
2022-08-19T23:07:52.263Z,30.33
2022-08-19T23:10:27.638Z,34.77
2022-08-19T23:12:56.748Z,31.70
2022-08-19T23:15:26.073Z,30.10
2022-08-19T23:17:54.480Z,32.67
2022-08-19T23:20:23.147Z,31.53
2022-08-19T23:22:52.423Z,35.60
2022-08-19T23:25:21.512Z,31.07
2022-08-19T23:28:07.157Z,29.90
2022-08-19T23:30:39.986Z,33.17
2022-08-19T23:33:21.339Z,28.70
2022-08-19T23:35:48.632Z,33.40
2022-08-19T23:38:15.178Z,31.97
2022-08-19T23:40:42.417Z,27.80
2022-08-19T23:43:09.653Z,32.67
2022-08-19T23:45:41.021Z,27.63
2022-08-19T23:48:17.940Z,31.23
2022-08-19T23:50:45.152Z,28.03
2022-08-19T23:53:13.261Z,28.93
2022-08-19T23:55:42.711Z,31.47
2022-08-19T23:58:09.598Z,32.93
